Great Basin Natl Park, Nevada
Current Conditions -  °F | °C
As of 9:53 AM on Monday 26 Jan 2015 (Local Time) from KELY Reporting Station
Clear Clear  
Wind Chill: 43°   Ceiling: Unl
Heat Index: 43°   Visibility: 10mi
Dew Point: 28°   Wind: 0mph
Humidity: 56%   Direction: NA
Pressure: 30.34"   Gusts: NA
Location:  39°N, 114.25°W
Report Text: KELY 261753Z AUTO 00000KT 10SM CLR 06/M02 A3034 RMK AO2 SLP265 T00611022 10067 21067 58008
Loading
Personal Weather Stations






























Interactive Weather Map New forecast layout! Learn more

10-Day Weather Forecast

Advertisements
Track Severe Weather on mobile